Terre Haute, IN (47805)

6:54 PM EDT on July 23, 2016 (GMT -0400)
Sandcut/North Terre Haute | | Change Station
Active Advisory: Heat Advisory

Elev 590 ft 39.56 °N, 87.30 °W | Updated 9 seconds ago

Scattered Clouds
Scattered Clouds
88.7 °F
Feels Like 100 °F
N
0.0
Wind Variable Wind from SSW
Gusts 0.0 mph

Today
High -- | Low -- °F
--% Chance of Precip.
Yesterday
High -- | Low -- °F
Precip. -- in
Pressure 29.94 in
Visibility 10.0 miles
Clouds Scattered Clouds 3400 ft
Scattered Clouds 4200 ft
Heat Index 100 °F
Dew Point 76 °F
Humidity 67%
Rainfall in
Snow Depth Not available.
6:41 AM 9:09 PM
Waning Gibbous, 82% visible
METAR KHUF 232153Z 13004KT 10SM SCT034 SCT042 32/23 A2995 RMK AO2 SLP136 T03170233
Pressure 29.94 in
Visibility 10.0 miles
Clouds Scattered Clouds 3400 ft
Scattered Clouds 4200 ft
Heat Index 100 °F
Dew Point 76 °F
Humidity 67%
Rainfall in
Snow Depth Not available.
6:41 AM 9:09 PM
Waning Gibbous, 82% visible
METAR KHUF 232153Z 13004KT 10SM SCT034 SCT042 32/23 A2995 RMK AO2 SLP136 T03170233

10-Day Weather Forecast

Almanac

Astronomy

Jul. 23, 2016 Rise Set
Actual Time
Civil Twilight
Nautical Twilight
Astronomical Twilight
Moon
Length of Visible Light
Length of Day
Tomorrow will be .
, % of the Moon is Illuminated

Today's Extremes

State Highs State Lows

Community

WunderPhotos

Upload Photos

1,926,950 photos uploaded!

WunderBlog® & News

Nearby

Air Quality

  Air Quality AQ Index Pollutant
Not available.

Snow Depth

Station Depth Elevation

Earthquake Activity

City Distance Mag. Time & Date
Minimum magnitude displayed is 2.5.

Coastal Water Temperatures

Place Temperature

Stations

Nearby Weather Stations

Station Location Temp. Windchill Dew Point Humidity Wind Precip. Elev Updated Type
                   

Watches & Warnings

Heat Advisory
Issued: 2:52 PM EDT Jul. 23, 2016 – National Weather Service

... Heat advisory now in effect until 8 PM EDT Sunday...

* temperature... highs as warm as the low to middle 90s with dew
point tempertures in the middle 70s.

* Impacts... heat index values will approach 105 degrees across the
area this afternoon and again Sunday afternoon.

Precautionary/preparedness actions...

A heat advisory means that a period of hot temperatures is
expected. The combination of hot temperatures and high humidity
will combine to create a situation in which heat illnesses are
possible. Drink plenty of fluids... stay in an air-conditioned
room... stay out of the sun... and check up on relatives and
neighbors.



Nield